Fort Nelson Airport
CYYE : now visible

Airfield :











YOU CAN JOIN US ON...

 
LOGIN :

Register | Disclaimer

   EN    FR    IT 

 









Legend :    VFR   Marginal VFR   IFR   Intensive IFR   Very Intensive IFR
Visi :
Ceiling :
>= 8 km
>= 3000ft
5 to 8 km
1000 to 3000 ft
1500m to 5 km
500 to 1000 ft
800 to 1500m
200 to 500 ft
< 800m
< 200 ft
Symbols :   Thunderstorms  Fog  Heavy snow  Heavy precipitations  Wind > 20 kt






- Airport Elevation : 1253 ft
- IATA code : YYE


CYYE - Fort Nelson

CURRENT METAR :
  • 271700Z 31007KT 5SM -SN FEW050 BKN065 M23/M27 A3029 RMK SC2SC5 SLP305

EXPIRED METARs :
  • 271600Z 32006KT 5SM -SN BKN065 OVC091 M23/M27 A3029 RMK SC7AC1 SLP304
  • 271500Z 32007KT 7SM -SN BKN057 OVC091 M23/M27 A3028 RMK SC7AC1 SLP303

TAF TAF CYYE
Valid from the 27 at 13:00 until the 28 at 01:00 UTC


271239Z 2713/2801 32007KT 6SM -SN SCT030 OVC050
TEMPO 2713/2801 21/2SM -SN BKN020 OVC040 RMK NXT FCST BY 271900Z
CZEG FIR / North America



MET'MAP, your aeronautical weather chart ! - Copyright ORBIFLY December 2007 - Disclaimer

ORBIFLY MET'MAP TEAM :

Programming & Development : Alexandra Zaïnal
Concept & original design : Baudouin d'Aumeries
Assistance for programming : Marc-Olivier Méhu
Technical & hardware support : Manuel Goepfert

Contact : metmap@orbifly.com




SOURCES & CREDITS :

   NOAA       Earth
Advisory